createdAt,value
2022-12-27T00:08:43.467Z,956.2
2022-12-27T00:23:45.344Z,956.41
2022-12-27T00:38:47.256Z,956
2022-12-27T00:53:49.203Z,955.77
2022-12-27T01:08:51.147Z,955.52
2022-12-27T01:23:53.065Z,955.42
2022-12-27T01:38:55.006Z,955.11
2022-12-27T01:53:56.910Z,955.02
2022-12-27T02:08:58.855Z,954.99
2022-12-27T02:24:00.827Z,954.95
2022-12-27T02:39:03.920Z,954.65
2022-12-27T02:54:05.820Z,954.38
2022-12-27T03:09:07.760Z,954.11
2022-12-27T03:24:09.721Z,953.55
2022-12-27T03:39:11.635Z,953.05
2022-12-27T03:54:13.720Z,952.47
2022-12-27T04:09:15.683Z,952.21
2022-12-27T04:24:17.582Z,951.78
2022-12-27T04:39:19.830Z,951.21
2022-12-27T04:54:21.836Z,951.17
2022-12-27T05:09:23.747Z,950.87
2022-12-27T05:24:25.662Z,950.5
2022-12-27T05:39:27.526Z,950.19
2022-12-27T05:54:29.455Z,949.87
2022-12-27T06:09:31.403Z,949.5
2022-12-27T06:24:33.559Z,949.17
2022-12-27T06:39:35.489Z,948.64
2022-12-27T06:54:37.491Z,948.22
2022-12-27T07:09:39.398Z,947.77
2022-12-27T07:24:41.361Z,947.19
2022-12-27T07:39:43.246Z,946.71
2022-12-27T07:54:45.234Z,946.3
2022-12-27T08:09:47.176Z,945.69
2022-12-27T08:24:49.254Z,945.21
2022-12-27T08:39:51.245Z,944.97
2022-12-27T08:54:53.244Z,944.76
2022-12-27T09:09:55.184Z,944.48
2022-12-27T09:24:57.150Z,944.27
2022-12-27T09:39:59.067Z,943.81
2022-12-27T09:55:04.668Z,943.4
2022-12-27T10:10:07.433Z,943.05
2022-12-27T10:25:09.377Z,942.82
2022-12-27T10:40:11.407Z,942.47
2022-12-27T10:55:13.370Z,942.28
2022-12-27T11:10:15.346Z,941.89
2022-12-27T11:25:17.327Z,941.8
2022-12-27T11:40:19.308Z,941.77
2022-12-27T11:55:21.202Z,941.37
2022-12-27T12:10:23.152Z,940.94
2022-12-27T12:25:25.061Z,940.56
2022-12-27T12:40:26.966Z,940.38
2022-12-27T12:55:33.403Z,940.05
2022-12-27T13:10:38.513Z,939.72
2022-12-27T13:25:40.441Z,939.52
2022-12-27T13:40:42.372Z,939.49
2022-12-27T13:55:44.269Z,939.2
2022-12-27T14:10:46.180Z,939.05
2022-12-27T14:25:48.126Z,938.86
2022-12-27T14:40:50.050Z,938.69
2022-12-27T14:55:51.955Z,938.47
2022-12-27T15:10:53.928Z,938.25
2022-12-27T15:25:56.092Z,938.15
2022-12-27T15:40:58.059Z,937.96
2022-12-27T15:55:59.976Z,938.03
2022-12-27T16:11:01.950Z,937.91
2022-12-27T16:26:03.858Z,937.88
2022-12-27T16:41:05.823Z,937.88
2022-12-27T16:56:07.755Z,937.9
2022-12-27T17:11:09.691Z,937.84
2022-12-27T17:26:11.597Z,937.59
2022-12-27T17:41:15.719Z,937.46
2022-12-27T17:56:18.163Z,937.44
2022-12-27T18:11:24.846Z,937.34
2022-12-27T18:26:28.301Z,937.13
2022-12-27T18:41:30.218Z,937.01
2022-12-27T18:56:32.195Z,936.85
2022-12-27T19:11:36.453Z,936.59
2022-12-27T19:26:38.764Z,936.52
2022-12-27T19:41:40.798Z,936.36
2022-12-27T19:56:42.744Z,936.21
2022-12-27T20:11:44.705Z,935.85
2022-12-27T20:26:46.647Z,935.61
2022-12-27T20:41:48.637Z,935.47
2022-12-27T20:56:50.552Z,935.39
2022-12-27T21:11:52.530Z,935.36
2022-12-27T21:26:56.608Z,935.23
2022-12-27T21:41:58.739Z,935.22
2022-12-27T21:57:00.906Z,935.21
2022-12-27T22:12:02.892Z,935.2
2022-12-27T22:27:04.756Z,935.23
2022-12-27T22:42:07.907Z,935.41
2022-12-27T22:57:09.839Z,935.51
2022-12-27T23:12:11.791Z,935.54
2022-12-27T23:27:13.795Z,935.63
2022-12-27T23:42:15.796Z,935.8
2022-12-27T23:57:20.558Z,935.76
